createdAt,value
2023-02-01T00:00:23.448Z,12.07
2023-02-01T00:02:49.982Z,15.60
2023-02-01T00:05:16.321Z,11.90
2023-02-01T00:07:42.655Z,14.73
2023-02-01T00:10:09.843Z,9.87
2023-02-01T00:12:36.309Z,13.70
2023-02-01T00:15:02.818Z,10.10
2023-02-01T00:17:29.271Z,13.00
2023-02-01T00:19:55.597Z,18.87
2023-02-01T00:22:21.941Z,15.90
2023-02-01T00:24:48.353Z,12.87
2023-02-01T00:27:18.532Z,15.03
2023-02-01T00:29:45.953Z,18.67
2023-02-01T00:32:12.802Z,11.57
2023-02-01T00:34:39.313Z,13.40
2023-02-01T00:37:05.726Z,17.47
2023-02-01T00:39:32.073Z,19.63
2023-02-01T00:41:58.448Z,24.73
2023-02-01T00:44:24.814Z,14.53
2023-02-01T00:46:51.209Z,13.93
2023-02-01T00:49:17.690Z,12.00
2023-02-01T00:51:44.215Z,14.67
2023-02-01T00:54:10.546Z,15.63
2023-02-01T00:56:36.860Z,17.10
2023-02-01T00:59:03.190Z,17.70
2023-02-01T01:01:29.527Z,16.87
2023-02-01T01:03:58.600Z,14.63
2023-02-01T01:06:27.779Z,17.93
2023-02-01T01:08:56.023Z,16.00
2023-02-01T01:11:28.820Z,14.30
2023-02-01T01:13:56.939Z,16.07
2023-02-01T01:16:25.275Z,15.33
2023-02-01T01:18:51.879Z,17.83
2023-02-01T01:21:19.129Z,15.77
2023-02-01T01:23:47.420Z,16.43
2023-02-01T01:26:18.056Z,16.10
2023-02-01T01:28:44.599Z,18.33
2023-02-01T01:31:12.960Z,18.87
2023-02-01T01:33:39.464Z,16.90
2023-02-01T01:36:07.260Z,20.80
2023-02-01T01:38:33.835Z,16.87
2023-02-01T01:41:00.210Z,19.43
2023-02-01T01:43:26.559Z,20.13
2023-02-01T01:45:52.900Z,21.50
2023-02-01T01:48:28.759Z,16.97
2023-02-01T01:51:04.060Z,16.20
2023-02-01T01:53:39.309Z,18.70
2023-02-01T01:56:05.884Z,19.63
2023-02-01T01:58:34.442Z,22.33
2023-02-01T02:01:01.140Z,16.20
2023-02-01T02:03:40.081Z,20.83
2023-02-01T02:06:15.026Z,18.07
2023-02-01T02:08:41.436Z,29.53
2023-02-01T02:11:07.812Z,17.90
2023-02-01T02:13:39.488Z,18.60
2023-02-01T02:16:18.001Z,20.20
2023-02-01T02:19:15.311Z,18.10
2023-02-01T02:22:03.539Z,19.70
2023-02-01T02:24:39.352Z,20.93
2023-02-01T02:27:25.216Z,22.40
2023-02-01T02:30:23.056Z,25.57
2023-02-01T02:32:58.101Z,30.87
2023-02-01T02:35:51.265Z,35.93
2023-02-01T02:38:31.209Z,39.80
2023-02-01T02:41:38.807Z,43.10
2023-02-01T02:44:35.084Z,38.10
2023-02-01T02:47:27.194Z,42.80
2023-02-01T02:50:23.699Z,55.90
2023-02-01T02:53:18.723Z,49.80
2023-02-01T02:55:46.270Z,48.00
2023-02-01T02:58:32.972Z,51.03
2023-02-01T03:01:18.110Z,50.27
2023-02-01T03:04:03.938Z,54.00
2023-02-01T03:06:33.405Z,40.93
2023-02-01T03:09:02.608Z,42.93
2023-02-01T03:11:50.601Z,35.00
2023-02-01T03:14:19.444Z,35.70
2023-02-01T03:16:55.587Z,32.50
2023-02-01T03:19:32.671Z,32.60
2023-02-01T03:22:04.568Z,29.90
2023-02-01T03:24:35.218Z,29.10
2023-02-01T03:27:14.844Z,35.47
2023-02-01T03:29:55.623Z,30.13
2023-02-01T03:32:22.804Z,32.23
2023-02-01T03:34:50.529Z,31.53
2023-02-01T03:37:27.167Z,36.40
2023-02-01T03:40:01.489Z,36.43
2023-02-01T03:42:37.986Z,36.30
2023-02-01T03:45:13.048Z,36.17
2023-02-01T03:47:46.155Z,30.57
2023-02-01T03:50:16.599Z,36.90
2023-02-01T03:52:45.951Z,33.77
2023-02-01T03:55:15.716Z,34.83
2023-02-01T03:57:52.683Z,35.57
2023-02-01T04:00:23.180Z,38.67
2023-02-01T04:02:49.982Z,40.47
2023-02-01T04:05:16.357Z,39.53
2023-02-01T04:07:42.788Z,38.83
2023-02-01T04:10:10.821Z,41.50
2023-02-01T04:12:37.488Z,41.87
2023-02-01T04:15:04.584Z,40.00
2023-02-01T04:17:31.132Z,39.57
2023-02-01T04:19:57.526Z,37.87
2023-02-01T04:22:23.972Z,35.50
2023-02-01T04:24:50.354Z,35.77
2023-02-01T04:27:16.899Z,38.23
2023-02-01T04:29:43.275Z,30.73
2023-02-01T04:32:09.670Z,27.93
2023-02-01T04:34:36.240Z,35.03
2023-02-01T04:37:03.327Z,31.70
2023-02-01T04:39:29.680Z,30.60
2023-02-01T04:41:56.015Z,28.13
2023-02-01T04:44:22.667Z,28.03
2023-02-01T04:46:49.336Z,26.63
2023-02-01T04:49:16.646Z,26.90
2023-02-01T04:51:43.474Z,28.03
2023-02-01T04:54:12.343Z,23.57
2023-02-01T04:56:38.862Z,23.30
2023-02-01T04:59:06.054Z,33.40
2023-02-01T05:01:32.735Z,28.17
2023-02-01T05:03:59.196Z,26.03
2023-02-01T05:06:25.672Z,21.30
2023-02-01T05:08:52.247Z,19.90
2023-02-01T05:11:36.965Z,26.30
2023-02-01T05:14:03.320Z,25.30
2023-02-01T05:16:29.666Z,22.63
2023-02-01T05:18:56.263Z,24.87
2023-02-01T05:21:22.735Z,27.43
2023-02-01T05:24:07.575Z,29.03
2023-02-01T05:26:34.466Z,27.83
2023-02-01T05:29:00.831Z,27.30
2023-02-01T05:31:27.353Z,24.67
2023-02-01T05:33:53.806Z,27.07
2023-02-01T05:36:20.257Z,28.10
2023-02-01T05:38:46.644Z,25.00
2023-02-01T05:41:13.039Z,32.50
2023-02-01T05:43:39.363Z,31.63
2023-02-01T05:46:05.769Z,35.60
2023-02-01T05:48:32.116Z,33.30
2023-02-01T05:50:58.441Z,27.33
2023-02-01T05:53:24.787Z,32.23
2023-02-01T05:55:51.146Z,28.53
2023-02-01T05:58:17.477Z,29.57
2023-02-01T06:00:43.812Z,22.83
2023-02-01T06:03:10.270Z,23.80
2023-02-01T06:05:37.828Z,25.03
2023-02-01T06:08:04.559Z,27.87
2023-02-01T06:10:30.899Z,23.90
2023-02-01T06:12:57.263Z,24.40
2023-02-01T06:15:23.585Z,25.50
2023-02-01T06:17:49.979Z,21.33
2023-02-01T06:20:16.920Z,26.33
2023-02-01T06:22:43.269Z,21.77
2023-02-01T06:25:11.174Z,18.10
2023-02-01T06:27:37.823Z,25.50
2023-02-01T06:30:05.800Z,23.37
2023-02-01T06:32:32.190Z,20.70
2023-02-01T06:34:58.940Z,19.00
2023-02-01T06:37:26.244Z,22.63
2023-02-01T06:39:52.561Z,23.80
2023-02-01T06:42:18.939Z,28.30
2023-02-01T06:44:45.271Z,16.70
2023-02-01T06:47:11.597Z,21.60
2023-02-01T06:49:37.992Z,19.80
2023-02-01T06:52:04.469Z,24.03
2023-02-01T06:54:33.191Z,27.03
2023-02-01T06:56:59.519Z,19.23
2023-02-01T06:59:25.866Z,16.37
2023-02-01T07:01:52.243Z,17.60
2023-02-01T07:04:18.627Z,18.20
2023-02-01T07:06:44.964Z,16.87
2023-02-01T07:09:13.095Z,20.80
2023-02-01T07:11:43.949Z,18.77
2023-02-01T07:14:13.071Z,27.20
2023-02-01T07:16:39.479Z,22.77
2023-02-01T07:19:06.148Z,22.50
2023-02-01T07:21:32.591Z,25.57
2023-02-01T07:23:59.261Z,24.73
2023-02-01T07:26:25.625Z,28.27
2023-02-01T07:28:51.965Z,29.53
2023-02-01T07:31:21.924Z,33.70
2023-02-01T07:33:55.852Z,36.90
2023-02-01T07:36:22.411Z,35.33
2023-02-01T07:38:49.160Z,38.73
2023-02-01T07:41:16.103Z,41.30
2023-02-01T07:43:42.499Z,41.33
2023-02-01T07:46:11.367Z,46.43
2023-02-01T07:48:37.844Z,53.70
2023-02-01T07:51:11.031Z,44.97
2023-02-01T07:53:38.277Z,51.60
2023-02-01T07:56:05.375Z,42.63
2023-02-01T07:58:31.788Z,47.83
2023-02-01T08:01:16.750Z,60.97
2023-02-01T08:03:43.149Z,49.03
2023-02-01T08:06:09.546Z,43.73
2023-02-01T08:08:36.011Z,50.00
2023-02-01T08:11:04.847Z,41.37
2023-02-01T08:13:31.669Z,50.63
2023-02-01T08:16:03.417Z,47.30
2023-02-01T08:18:29.972Z,56.20
2023-02-01T08:20:56.642Z,55.83
2023-02-01T08:23:23.906Z,48.53
2023-02-01T08:25:50.260Z,53.03
2023-02-01T08:28:16.704Z,55.07
2023-02-01T08:30:43.681Z,47.50
2023-02-01T08:33:10.920Z,48.80
2023-02-01T08:35:43.396Z,39.77
2023-02-01T08:38:10.634Z,41.03
2023-02-01T08:40:37.041Z,43.33
2023-02-01T08:43:03.391Z,36.50
2023-02-01T08:45:30.830Z,38.00
2023-02-01T08:47:58.159Z,42.87
2023-02-01T08:50:25.899Z,40.03
2023-02-01T08:52:53.032Z,41.77
2023-02-01T08:55:20.089Z,36.57
2023-02-01T08:57:46.433Z,37.97
2023-02-01T09:00:16.463Z,34.23
2023-02-01T09:02:43.436Z,29.93
2023-02-01T09:05:10.187Z,30.40
2023-02-01T09:07:36.545Z,30.63
2023-02-01T09:10:03.884Z,32.87
2023-02-01T09:12:33.232Z,31.87
2023-02-01T09:15:00.769Z,27.17
2023-02-01T09:19:55.921Z,35.20
2023-02-01T09:22:22.289Z,28.30
2023-02-01T09:24:48.747Z,18.30
2023-02-01T09:27:15.503Z,26.03
2023-02-01T09:29:41.912Z,28.30
2023-02-01T09:32:08.355Z,28.13
2023-02-01T09:34:35.124Z,30.10
2023-02-01T09:37:01.955Z,22.73
2023-02-01T09:39:30.961Z,23.27
2023-02-01T09:42:06.022Z,22.00
2023-02-01T09:44:46.246Z,23.50
2023-02-01T09:47:19.188Z,21.10
2023-02-01T09:49:57.063Z,22.43
2023-02-01T09:52:42.231Z,21.80
2023-02-01T09:55:17.390Z,21.17
2023-02-01T09:58:03.021Z,21.67
2023-02-01T10:00:38.705Z,21.80
2023-02-01T10:03:05.592Z,20.30
2023-02-01T10:05:50.857Z,24.77
2023-02-01T10:08:27.187Z,25.73
2023-02-01T10:11:02.206Z,23.33
2023-02-01T10:14:01.387Z,26.97
2023-02-01T10:16:40.621Z,20.23
2023-02-01T10:19:34.507Z,20.30
2023-02-01T10:22:10.992Z,22.97
2023-02-01T10:24:43.553Z,29.17
2023-02-01T10:27:22.441Z,25.80
2023-02-01T10:29:56.263Z,22.23
2023-02-01T10:32:28.404Z,18.13
2023-02-01T10:35:23.030Z,22.53
2023-02-01T10:37:49.469Z,22.03
2023-02-01T10:40:26.848Z,17.83
2023-02-01T10:42:57.580Z,17.20
2023-02-01T10:45:28.606Z,22.57
2023-02-01T10:47:57.983Z,22.00
2023-02-01T10:50:49.638Z,17.47
2023-02-01T10:53:25.334Z,18.33
2023-02-01T10:55:55.783Z,20.10
2023-02-01T10:58:30.198Z,20.10
2023-02-01T11:01:06.219Z,17.37
2023-02-01T11:03:43.524Z,18.10
2023-02-01T11:06:14.380Z,13.13
2023-02-01T11:08:48.209Z,16.50
2023-02-01T11:11:14.661Z,15.33
2023-02-01T11:13:41.546Z,17.93
2023-02-01T11:16:13.249Z,13.47
2023-02-01T11:18:39.797Z,17.90
2023-02-01T11:21:08.762Z,14.50
2023-02-01T11:23:42.575Z,19.57
2023-02-01T11:26:30.174Z,17.40
2023-02-01T11:29:11.045Z,14.10
2023-02-01T11:31:38.407Z,16.37
2023-02-01T11:34:16.771Z,13.90
2023-02-01T11:36:46.951Z,15.50
2023-02-01T11:39:13.411Z,16.70
2023-02-01T11:42:02.853Z,12.17
2023-02-01T11:44:35.268Z,14.20
2023-02-01T11:47:19.742Z,15.80
2023-02-01T11:49:46.891Z,13.40
2023-02-01T11:52:33.472Z,12.47
2023-02-01T11:55:26.540Z,15.00
2023-02-01T11:58:15.605Z,16.87
2023-02-01T12:01:08.637Z,10.27
2023-02-01T12:03:37.778Z,12.93
2023-02-01T12:06:22.236Z,11.30
2023-02-01T12:09:12.487Z,10.93
2023-02-01T12:11:51.226Z,12.30
2023-02-01T12:14:36.215Z,13.13
2023-02-01T12:17:26.185Z,10.70
2023-02-01T12:20:04.250Z,14.27
2023-02-01T12:22:49.044Z,12.27
2023-02-01T12:25:24.800Z,13.43
2023-02-01T12:28:08.293Z,22.43
2023-02-01T12:30:54.577Z,15.30
2023-02-01T12:33:49.300Z,11.80
2023-02-01T12:36:59.227Z,14.30
2023-02-01T12:39:33.959Z,12.07
2023-02-01T12:42:12.512Z,15.60
2023-02-01T12:44:51.693Z,11.87
2023-02-01T12:47:31.984Z,12.03
2023-02-01T12:50:12.467Z,16.53
2023-02-01T12:52:45.737Z,13.53
2023-02-01T12:55:25.405Z,14.53
2023-02-01T12:58:25.285Z,14.73
2023-02-01T13:01:07.221Z,18.50
2023-02-01T13:03:40.872Z,11.87
2023-02-01T13:06:13.303Z,10.40
2023-02-01T13:08:52.821Z,10.90
2023-02-01T13:11:29.786Z,7.50
2023-02-01T13:14:11.365Z,14.57
2023-02-01T13:16:52.137Z,10.40
2023-02-01T13:19:26.116Z,22.17
2023-02-01T13:21:58.015Z,8.60
2023-02-01T13:24:47.962Z,14.33
2023-02-01T13:27:15.726Z,13.53
2023-02-01T13:29:53.771Z,4.80
2023-02-01T13:33:54.127Z,14.30
2023-02-01T13:36:28.976Z,9.10
2023-02-01T13:39:15.898Z,11.80
2023-02-01T13:41:53.212Z,11.47
2023-02-01T13:44:43.371Z,11.23
2023-02-01T13:47:27.511Z,8.33
2023-02-01T13:49:56.117Z,13.30
2023-02-01T13:52:29.863Z,15.43
2023-02-01T13:55:23.182Z,13.13
2023-02-01T13:57:53.274Z,13.53
2023-02-01T14:00:31.866Z,16.20
2023-02-01T14:03:01.343Z,8.70
2023-02-01T14:05:27.588Z,19.37
2023-02-01T14:08:06.148Z,10.23
2023-02-01T14:10:55.002Z,14.23
2023-02-01T14:13:24.398Z,12.17
2023-02-01T14:16:03.173Z,8.27
2023-02-01T14:18:35.524Z,16.30
2023-02-01T14:21:28.490Z,7.93
2023-02-01T14:23:54.792Z,15.53
2023-02-01T14:26:27.384Z,11.07
2023-02-01T14:29:01.806Z,10.57
2023-02-01T14:31:45.013Z,6.50
2023-02-01T14:34:18.884Z,9.83
2023-02-01T14:37:07.814Z,13.77
2023-02-01T14:39:47.455Z,10.23
2023-02-01T14:42:29.001Z,18.23
2023-02-01T14:45:16.539Z,13.07
2023-02-01T14:47:43.124Z,20.70
2023-02-01T14:50:22.944Z,17.37
2023-02-01T14:53:14.537Z,7.23
2023-02-01T14:56:07.054Z,15.30
2023-02-01T14:58:49.757Z,10.23
2023-02-01T15:01:18.223Z,9.73
2023-02-01T15:04:03.108Z,17.20
2023-02-01T15:06:43.539Z,8.30
2023-02-01T15:09:15.342Z,27.43
2023-02-01T15:12:13.420Z,15.47
2023-02-01T15:14:51.858Z,9.60
2023-02-01T15:17:34.490Z,9.90
2023-02-01T15:20:26.991Z,16.13
2023-02-01T15:22:59.247Z,13.60
2023-02-01T15:25:32.285Z,11.60
2023-02-01T15:27:59.096Z,11.27
2023-02-01T15:30:28.930Z,11.27
2023-02-01T15:33:16.624Z,15.13
2023-02-01T15:35:44.860Z,12.80
2023-02-01T15:38:24.274Z,7.60
2023-02-01T15:41:03.710Z,15.80
2023-02-01T15:43:33.631Z,15.17
2023-02-01T15:46:02.879Z,15.37
2023-02-01T15:48:38.821Z,8.87
2023-02-01T15:51:05.652Z,7.03
2023-02-01T15:53:32.553Z,9.43
2023-02-01T15:56:02.567Z,10.60
2023-02-01T15:58:29.726Z,10.93
2023-02-01T16:01:03.042Z,9.60
2023-02-01T16:03:44.793Z,8.67
2023-02-01T16:06:26.764Z,12.30
2023-02-01T16:09:11.374Z,14.43
2023-02-01T16:11:48.862Z,12.73
2023-02-01T16:14:16.129Z,11.57
2023-02-01T16:16:42.912Z,12.93
2023-02-01T16:19:09.326Z,13.60
2023-02-01T16:21:35.825Z,11.93
2023-02-01T16:24:04.826Z,19.33
2023-02-01T16:26:32.516Z,19.53
2023-02-01T16:28:59.783Z,13.30
2023-02-01T16:31:30.018Z,11.63
2023-02-01T16:33:56.641Z,10.83
2023-02-01T16:36:23.454Z,10.83
2023-02-01T16:38:50.809Z,12.80
2023-02-01T16:41:19.537Z,18.03
2023-02-01T16:43:46.337Z,10.40
2023-02-01T16:46:16.577Z,12.50
2023-02-01T16:48:47.757Z,10.83
2023-02-01T16:51:17.026Z,14.13
2023-02-01T16:53:53.924Z,15.80
2023-02-01T16:56:23.086Z,11.83
2023-02-01T16:58:50.174Z,15.83
2023-02-01T17:01:19.394Z,14.40
2023-02-01T17:03:46.703Z,11.70
2023-02-01T17:06:17.232Z,18.47
2023-02-01T17:08:47.064Z,12.60
2023-02-01T17:11:14.128Z,11.53
2023-02-01T17:13:46.262Z,14.17
2023-02-01T17:16:18.427Z,13.43
2023-02-01T17:18:51.266Z,13.13
2023-02-01T17:21:17.667Z,15.50
2023-02-01T17:23:44.085Z,7.77
2023-02-01T17:26:10.768Z,10.77
2023-02-01T17:28:37.121Z,18.77
2023-02-01T17:31:04.793Z,9.93
2023-02-01T17:33:36.241Z,10.77
2023-02-01T17:36:05.864Z,12.83
2023-02-01T17:38:33.271Z,9.63
2023-02-01T17:40:59.840Z,11.13
2023-02-01T17:43:26.516Z,12.17
2023-02-01T17:46:12.384Z,13.73
2023-02-01T17:48:39.713Z,12.20
2023-02-01T17:51:15.698Z,7.67
2023-02-01T17:53:42.025Z,14.00
2023-02-01T17:56:14.259Z,11.33
2023-02-01T17:58:41.044Z,14.57
2023-02-01T18:01:12.040Z,9.97
2023-02-01T18:03:38.512Z,14.60
2023-02-01T18:06:07.472Z,18.53
2023-02-01T18:08:33.866Z,11.27
2023-02-01T18:11:02.088Z,23.30
2023-02-01T18:13:29.533Z,7.63
2023-02-01T18:15:56.236Z,21.73
2023-02-01T18:18:22.577Z,13.57
2023-02-01T18:20:49.505Z,11.83
2023-02-01T18:23:19.404Z,14.70
2023-02-01T18:25:47.166Z,12.03
2023-02-01T18:28:18.113Z,14.27
2023-02-01T18:30:48.122Z,9.33
2023-02-01T18:33:17.446Z,10.97
2023-02-01T18:35:44.225Z,9.33
2023-02-01T18:38:11.101Z,15.53
2023-02-01T18:40:50.315Z,16.73
2023-02-01T18:43:16.669Z,8.97
2023-02-01T18:45:47.311Z,11.10
2023-02-01T18:48:15.510Z,11.93
2023-02-01T18:50:44.035Z,15.27
2023-02-01T18:53:21.652Z,16.90
2023-02-01T18:55:48.543Z,8.80
2023-02-01T18:58:16.516Z,13.10
2023-02-01T19:00:44.519Z,18.47
2023-02-01T19:03:15.540Z,12.60
2023-02-01T19:05:42.418Z,12.63
2023-02-01T19:08:09.641Z,20.60
2023-02-01T19:10:38.533Z,14.77
2023-02-01T19:13:05.347Z,10.87
2023-02-01T19:15:33.745Z,9.70
2023-02-01T19:18:00.142Z,9.33
2023-02-01T19:20:27.453Z,10.70
2023-02-01T19:22:54.403Z,6.90
2023-02-01T19:25:23.863Z,15.37
2023-02-01T19:27:51.569Z,26.03
2023-02-01T19:30:19.449Z,12.07
2023-02-01T19:32:46.248Z,21.40
2023-02-01T19:35:14.957Z,15.47
2023-02-01T19:37:42.226Z,8.27
2023-02-01T19:40:14.865Z,18.60
2023-02-01T19:42:41.274Z,16.03
2023-02-01T19:45:08.458Z,16.97
2023-02-01T19:47:35.498Z,12.47
2023-02-01T19:50:02.047Z,14.60
2023-02-01T19:52:28.507Z,16.40
2023-02-01T19:54:54.865Z,6.40
2023-02-01T19:57:21.287Z,12.50
2023-02-01T19:59:47.640Z,20.47
2023-02-01T20:02:16.308Z,16.73
2023-02-01T20:04:42.696Z,12.00
2023-02-01T20:07:10.992Z,12.77
2023-02-01T20:09:41.175Z,18.97
2023-02-01T20:12:10.643Z,8.60
2023-02-01T20:14:38.473Z,12.73
2023-02-01T20:17:06.477Z,8.53
2023-02-01T20:19:33.800Z,12.60
2023-02-01T20:22:00.406Z,11.70
2023-02-01T20:24:26.893Z,6.90
2023-02-01T20:26:54.147Z,9.30
2023-02-01T20:29:21.018Z,11.13
2023-02-01T20:31:47.546Z,10.67
2023-02-01T20:34:14.519Z,19.97
2023-02-01T20:36:42.396Z,17.30
2023-02-01T20:39:10.740Z,17.53
2023-02-01T20:41:38.008Z,8.40
2023-02-01T20:44:04.893Z,7.80
2023-02-01T20:46:31.332Z,17.73
2023-02-01T20:48:58.072Z,8.80
2023-02-01T20:51:24.425Z,10.10
2023-02-01T20:53:55.096Z,26.90
2023-02-01T20:56:21.785Z,14.00
2023-02-01T20:58:48.196Z,15.20
2023-02-01T21:01:15.297Z,11.53
2023-02-01T21:03:42.079Z,8.20
2023-02-01T21:06:10.760Z,11.40
2023-02-01T21:08:37.186Z,8.37
2023-02-01T21:11:05.967Z,16.33
2023-02-01T21:13:40.454Z,9.83
2023-02-01T21:16:14.226Z,13.47
2023-02-01T21:18:40.963Z,17.97
2023-02-01T21:21:13.144Z,14.00
2023-02-01T21:23:44.738Z,21.73
2023-02-01T21:26:12.898Z,8.73
2023-02-01T21:28:39.313Z,10.33
2023-02-01T21:31:06.471Z,17.53
2023-02-01T21:33:33.353Z,14.60
2023-02-01T21:36:00.280Z,9.47
2023-02-01T21:38:26.671Z,13.50
2023-02-01T21:41:13.189Z,17.97
2023-02-01T21:43:39.573Z,10.67
2023-02-01T21:46:06.222Z,9.50
2023-02-01T21:49:04.509Z,13.20
2023-02-01T21:51:19.379Z,13.30
2023-02-01T21:53:46.705Z,15.30
2023-02-01T21:56:13.063Z,14.07
2023-02-01T21:58:39.469Z,14.67
2023-02-01T22:01:05.864Z,19.47
2023-02-01T22:03:32.283Z,10.13
2023-02-01T22:05:58.765Z,16.00
2023-02-01T22:08:25.268Z,13.53
2023-02-01T22:10:51.687Z,18.73
2023-02-01T22:13:18.192Z,15.43
2023-02-01T22:15:44.586Z,16.20
2023-02-01T22:18:10.970Z,14.80
2023-02-01T22:20:37.376Z,16.20
2023-02-01T22:23:03.976Z,11.67
2023-02-01T22:25:30.622Z,15.53
2023-02-01T22:28:30.404Z,9.03
2023-02-01T22:30:43.357Z,16.50
2023-02-01T22:33:09.805Z,19.93
2023-02-01T22:35:39.018Z,10.97
2023-02-01T22:38:05.868Z,14.73
2023-02-01T22:40:32.211Z,14.50
2023-02-01T22:42:58.561Z,20.50
2023-02-01T22:45:25.219Z,14.97
2023-02-01T22:47:52.757Z,13.37
2023-02-01T22:50:19.238Z,15.57
2023-02-01T22:52:45.744Z,20.90
2023-02-01T22:55:12.112Z,14.50
2023-02-01T22:57:38.441Z,13.47
2023-02-01T23:00:06.576Z,16.70
2023-02-01T23:02:32.951Z,17.23
2023-02-01T23:04:59.384Z,22.47
2023-02-01T23:07:25.693Z,19.20
2023-02-01T23:09:52.147Z,19.23
2023-02-01T23:12:18.513Z,13.20
2023-02-01T23:15:08.023Z,21.80
2023-02-01T23:17:36.020Z,13.03
2023-02-01T23:20:04.588Z,16.70
2023-02-01T23:22:31.029Z,19.83
2023-02-01T23:24:57.455Z,13.70
2023-02-01T23:27:23.950Z,12.90
2023-02-01T23:29:50.285Z,20.10
2023-02-01T23:32:17.161Z,18.77
2023-02-01T23:34:43.576Z,13.33
2023-02-01T23:37:10.155Z,7.73
2023-02-01T23:39:36.591Z,15.93
2023-02-01T23:42:04.676Z,7.07
2023-02-01T23:44:31.476Z,18.50
2023-02-01T23:46:58.369Z,9.63
2023-02-01T23:49:25.035Z,13.10
2023-02-01T23:51:53.085Z,12.33
2023-02-01T23:54:22.835Z,16.90
2023-02-01T23:56:50.024Z,15.10
2023-02-01T23:59:19.078Z,16.03
